Terminal Aerodrome Forecast
Issued by NWS Cleveland, OH

Home | Current Version | Previous Version | Text Only | Print | Product List | Glossary On
Versions: 1 2 3 4 5 6 7 8 9 10 11 12 13 14 15 16 17 18 19 20 21 22
903
FTUS41 KCLE 230108 AAB
TAFMFD
TAF AMD
KMFD 230108Z 2301/2324 17014G22KT P6SM BKN035 OVC050
      TEMPO 2301/2303 BKN030
     FM230300 18015G22KT P6SM SCT025 BKN045
      TEMPO 2303/2307 4SM -SHRA BKN025
     FM230700 20011KT P6SM BKN035
     FM231400 22014G22KT 5SM -SHRA OVC018
     FM232100 24016G26KT P6SM VCSH OVC018=

USA.gov is the U.S. government's official web portal to all federal, state and local government web resources and services.